createdAt,value
2024-01-07T00:02:27.835Z,8.90
2024-01-07T00:04:55.997Z,13.10
2024-01-07T00:07:24.135Z,14.00
2024-01-07T00:09:52.192Z,13.20
2024-01-07T00:12:20.096Z,9.20
2024-01-07T00:14:48.114Z,13.90
2024-01-07T00:17:16.178Z,17.90
2024-01-07T00:19:44.236Z,19.20
2024-01-07T00:22:12.338Z,14.30
2024-01-07T00:24:40.378Z,12.30
2024-01-07T00:27:09.961Z,12.30
2024-01-07T00:29:38.442Z,10.80
2024-01-07T00:32:07.124Z,17.20
2024-01-07T00:34:35.455Z,13.70
2024-01-07T00:37:03.848Z,12.70
2024-01-07T00:39:32.127Z,9.10
2024-01-07T00:42:00.225Z,7.00
2024-01-07T00:44:28.394Z,11.90
2024-01-07T00:46:56.325Z,9.70
2024-01-07T00:49:24.988Z,13.10
2024-01-07T00:51:53.118Z,13.90
2024-01-07T00:54:21.180Z,17.20
2024-01-07T00:56:49.253Z,8.80
2024-01-07T00:59:17.452Z,11.40
2024-01-07T01:01:45.583Z,11.00
2024-01-07T01:04:13.770Z,12.80
2024-01-07T01:06:42.960Z,8.40
2024-01-07T01:09:11.141Z,6.30
2024-01-07T01:11:40.721Z,8.10
2024-01-07T01:14:08.749Z,10.50
2024-01-07T01:16:36.704Z,12.50
2024-01-07T01:19:04.779Z,9.40
2024-01-07T01:21:32.923Z,9.70
2024-01-07T01:24:01.450Z,6.00
2024-01-07T01:26:29.619Z,9.90
2024-01-07T01:28:57.724Z,10.80
2024-01-07T01:31:25.854Z,7.60
2024-01-07T01:33:54.012Z,12.00
2024-01-07T01:36:22.435Z,9.70
2024-01-07T01:38:50.532Z,8.60
2024-01-07T01:41:18.512Z,9.50
2024-01-07T01:43:46.476Z,11.90
2024-01-07T01:46:14.992Z,7.20
2024-01-07T01:48:44.363Z,6.70
2024-01-07T01:51:12.693Z,10.70
2024-01-07T01:53:41.211Z,11.30
2024-01-07T01:56:09.512Z,11.70
2024-01-07T01:58:38.281Z,7.70
2024-01-07T02:01:06.712Z,7.70
2024-01-07T02:03:34.866Z,7.80
2024-01-07T02:06:03.489Z,9.00
2024-01-07T02:08:31.780Z,8.50
2024-01-07T02:10:59.741Z,9.70
2024-01-07T02:13:27.742Z,6.90
2024-01-07T02:15:55.885Z,5.80
2024-01-07T02:18:24.148Z,6.40
2024-01-07T02:20:52.324Z,8.40
2024-01-07T02:23:20.407Z,9.30
2024-01-07T02:25:48.470Z,7.30
2024-01-07T02:28:16.781Z,4.70
2024-01-07T02:30:44.793Z,8.60
2024-01-07T02:33:13.074Z,8.70
2024-01-07T02:35:41.307Z,8.60
2024-01-07T02:38:09.361Z,7.30
2024-01-07T02:40:37.256Z,7.40
2024-01-07T02:43:05.562Z,10.40
2024-01-07T02:45:33.513Z,9.50
2024-01-07T02:48:01.924Z,6.50
2024-01-07T02:50:29.812Z,8.90
2024-01-07T02:52:58.212Z,7.90
2024-01-07T02:55:26.107Z,7.70
2024-01-07T02:57:54.178Z,8.90
2024-01-07T03:00:22.308Z,6.20
2024-01-07T03:02:50.335Z,5.60
2024-01-07T03:05:18.356Z,5.70
2024-01-07T03:07:46.268Z,6.70
2024-01-07T03:10:14.367Z,5.40
2024-01-07T03:12:42.748Z,5.10
2024-01-07T03:15:10.765Z,7.60
2024-01-07T03:17:38.912Z,5.70
2024-01-07T03:20:08.298Z,6.60
2024-01-07T03:22:36.810Z,4.00
2024-01-07T03:25:05.841Z,6.70
2024-01-07T03:27:33.829Z,8.70
2024-01-07T03:30:01.863Z,5.80
2024-01-07T03:32:29.994Z,7.40
2024-01-07T03:34:58.226Z,5.30
2024-01-07T03:37:26.302Z,7.70
2024-01-07T03:39:54.355Z,6.10
2024-01-07T03:42:22.642Z,7.90
2024-01-07T03:44:50.517Z,7.40
2024-01-07T03:47:18.515Z,6.60
2024-01-07T03:49:46.640Z,7.00
2024-01-07T03:52:14.866Z,7.00
2024-01-07T03:54:42.869Z,8.60
2024-01-07T03:57:10.814Z,5.70
2024-01-07T03:59:38.881Z,7.00
2024-01-07T04:02:08.412Z,7.30
2024-01-07T04:04:36.971Z,8.60
2024-01-07T04:07:05.170Z,5.90
2024-01-07T04:09:33.519Z,6.30
2024-01-07T04:12:01.597Z,5.70
2024-01-07T04:14:30.682Z,6.10
2024-01-07T04:16:58.691Z,8.10
2024-01-07T04:19:26.722Z,6.90
2024-01-07T04:21:54.900Z,8.70
2024-01-07T04:24:22.976Z,8.90
2024-01-07T04:26:50.921Z,6.70
2024-01-07T04:29:19.010Z,5.70
2024-01-07T04:31:47.136Z,8.80
2024-01-07T04:34:15.453Z,7.20
2024-01-07T04:36:43.462Z,13.30
2024-01-07T04:39:11.757Z,8.40
2024-01-07T04:41:39.762Z,7.40
2024-01-07T04:44:07.756Z,4.20
2024-01-07T04:46:39.023Z,5.70
2024-01-07T04:49:08.029Z,4.20
2024-01-07T04:51:37.866Z,4.90
2024-01-07T04:54:07.124Z,5.70
2024-01-07T04:56:35.209Z,3.30
2024-01-07T04:59:03.148Z,7.60
2024-01-07T05:01:33.981Z,4.80
2024-01-07T05:04:03.732Z,7.50
2024-01-07T05:06:31.794Z,6.80
2024-01-07T05:08:59.915Z,7.50
2024-01-07T05:11:28.302Z,6.30
2024-01-07T05:13:56.315Z,4.90
2024-01-07T05:16:24.406Z,6.10
2024-01-07T05:18:52.506Z,5.70
2024-01-07T05:21:20.599Z,6.80
2024-01-07T05:23:48.679Z,4.90
2024-01-07T05:26:16.681Z,3.10
2024-01-07T05:28:44.645Z,4.70
2024-01-07T05:31:19.714Z,5.70
2024-01-07T05:33:48.199Z,4.00
2024-01-07T05:36:16.310Z,5.70
2024-01-07T05:38:44.375Z,5.60
2024-01-07T05:41:12.839Z,8.30
2024-01-07T05:43:40.873Z,3.80
2024-01-07T05:46:08.934Z,4.10
2024-01-07T05:48:49.217Z,3.70
2024-01-07T05:51:18.451Z,5.60
2024-01-07T05:53:47.495Z,4.80
2024-01-07T05:56:15.664Z,5.20
2024-01-07T05:58:43.657Z,6.00
2024-01-07T06:01:11.880Z,6.00
2024-01-07T06:03:40.205Z,6.20
2024-01-07T06:06:08.382Z,4.50
2024-01-07T06:08:36.380Z,4.00
2024-01-07T06:11:04.591Z,6.50
2024-01-07T06:13:32.579Z,4.60
2024-01-07T06:16:00.552Z,4.80
2024-01-07T06:18:28.889Z,5.40
2024-01-07T06:20:57.332Z,2.70
2024-01-07T06:23:25.337Z,5.20
2024-01-07T06:25:53.367Z,5.00
2024-01-07T06:28:22.113Z,3.80
2024-01-07T06:30:50.154Z,4.70
2024-01-07T06:33:18.242Z,3.80
2024-01-07T06:35:46.273Z,4.00
2024-01-07T06:38:14.376Z,5.00
2024-01-07T06:40:42.481Z,5.10
2024-01-07T06:43:10.579Z,4.80
2024-01-07T06:45:38.874Z,7.80
2024-01-07T06:48:08.124Z,6.50
2024-01-07T06:50:36.142Z,4.70
2024-01-07T06:53:04.480Z,6.70
2024-01-07T06:55:32.473Z,5.90
2024-01-07T06:58:00.531Z,7.50
2024-01-07T07:00:28.597Z,4.90
2024-01-07T07:02:56.729Z,6.40
2024-01-07T07:05:24.741Z,6.80
2024-01-07T07:07:55.478Z,5.60
2024-01-07T07:10:24.000Z,5.70
2024-01-07T07:12:52.774Z,8.00
2024-01-07T07:15:20.892Z,9.40
2024-01-07T07:17:48.920Z,6.30
2024-01-07T07:20:17.198Z,7.20
2024-01-07T07:22:45.322Z,8.40
2024-01-07T07:25:13.449Z,6.10
2024-01-07T07:27:41.561Z,7.10
2024-01-07T07:30:09.844Z,8.60
2024-01-07T07:32:42.539Z,5.20
2024-01-07T07:35:10.498Z,7.20
2024-01-07T07:37:39.418Z,7.60
2024-01-07T07:40:08.353Z,8.30
2024-01-07T07:42:36.501Z,3.80
2024-01-07T07:45:05.596Z,7.40
2024-01-07T07:47:33.600Z,4.80
2024-01-07T07:50:03.480Z,7.70
2024-01-07T07:52:31.617Z,4.60
2024-01-07T07:54:59.855Z,19.20
2024-01-07T07:57:27.866Z,7.50
2024-01-07T07:59:56.368Z,10.80
2024-01-07T08:02:24.439Z,12.40
2024-01-07T08:04:52.768Z,12.60
2024-01-07T08:07:20.688Z,22.00
2024-01-07T08:09:48.663Z,14.50
2024-01-07T08:12:16.712Z,21.70
2024-01-07T08:14:44.737Z,13.10
2024-01-07T08:17:12.749Z,7.90
2024-01-07T08:19:40.881Z,10.00
2024-01-07T08:22:10.644Z,9.60
2024-01-07T08:24:39.030Z,9.30
2024-01-07T08:27:06.953Z,7.70
2024-01-07T08:29:35.033Z,8.10
2024-01-07T08:32:03.290Z,8.90
2024-01-07T08:34:31.531Z,8.30
2024-01-07T08:36:59.689Z,8.90
2024-01-07T08:39:29.875Z,6.90
2024-01-07T08:41:58.042Z,8.40
2024-01-07T08:44:25.941Z,8.20
2024-01-07T08:46:53.927Z,10.20
2024-01-07T08:49:22.246Z,13.90
2024-01-07T08:51:50.387Z,13.40
2024-01-07T08:54:18.467Z,47.80
2024-01-07T08:56:46.982Z,90.00
2024-01-07T08:59:14.990Z,29.40
2024-01-07T09:01:43.156Z,19.70
2024-01-07T09:04:11.287Z,23.30
2024-01-07T09:06:39.918Z,32.60
2024-01-07T09:09:08.055Z,25.20
2024-01-07T09:11:36.934Z,22.70
2024-01-07T09:14:04.921Z,24.20
2024-01-07T09:16:32.848Z,24.20
2024-01-07T09:19:01.083Z,18.50
2024-01-07T09:21:29.282Z,22.20
2024-01-07T09:23:57.463Z,18.20
2024-01-07T09:26:25.359Z,24.90
2024-01-07T09:28:53.281Z,14.70
2024-01-07T09:31:21.307Z,11.10
2024-01-07T09:33:49.507Z,7.90
2024-01-07T09:36:26.407Z,9.40
2024-01-07T09:38:58.384Z,8.90
2024-01-07T09:41:27.247Z,8.60
2024-01-07T09:43:55.499Z,10.00
2024-01-07T09:46:23.967Z,9.80
2024-01-07T09:48:53.031Z,11.70
2024-01-07T09:51:24.960Z,7.70
2024-01-07T09:54:00.086Z,8.80
2024-01-07T09:56:36.449Z,10.60
2024-01-07T09:59:04.538Z,14.10
2024-01-07T10:01:32.997Z,11.90
2024-01-07T10:04:01.425Z,12.50
2024-01-07T10:06:29.997Z,10.20
2024-01-07T10:08:59.393Z,8.10
2024-01-07T10:11:27.363Z,8.60
2024-01-07T10:13:55.714Z,9.90
2024-01-07T10:16:23.704Z,20.10
2024-01-07T10:18:52.080Z,13.90
2024-01-07T10:21:20.206Z,12.60
2024-01-07T10:23:48.616Z,10.00
2024-01-07T10:26:23.880Z,9.60
2024-01-07T10:28:56.186Z,10.20
2024-01-07T10:31:24.534Z,10.30
2024-01-07T10:33:54.465Z,12.50
2024-01-07T10:36:23.197Z,9.30
2024-01-07T10:38:51.724Z,9.60
2024-01-07T10:41:20.598Z,13.10
2024-01-07T10:43:50.072Z,11.00
2024-01-07T10:46:18.708Z,10.60
2024-01-07T10:49:05.871Z,11.60
2024-01-07T10:51:36.435Z,8.50
2024-01-07T10:54:04.889Z,9.40
2024-01-07T10:57:03.344Z,8.00
2024-01-07T10:59:33.366Z,8.50
2024-01-07T11:02:03.996Z,7.00
2024-01-07T11:04:54.527Z,7.40
2024-01-07T11:07:50.923Z,9.60
2024-01-07T11:10:35.156Z,10.90
2024-01-07T11:13:06.954Z,10.20
2024-01-07T11:15:54.435Z,9.10
2024-01-07T11:18:24.778Z,13.00
2024-01-07T11:20:54.380Z,12.10
2024-01-07T11:23:47.618Z,12.50
2024-01-07T11:26:15.877Z,11.30
2024-01-07T11:28:58.310Z,11.60
2024-01-07T11:31:48.512Z,12.40
2024-01-07T11:34:48.936Z,10.80
2024-01-07T11:37:17.397Z,7.10
2024-01-07T11:39:47.197Z,9.50
2024-01-07T11:42:15.534Z,7.80
2024-01-07T11:44:52.793Z,8.90
2024-01-07T11:47:22.995Z,8.40
2024-01-07T11:49:51.473Z,9.40
2024-01-07T11:52:21.294Z,9.30
2024-01-07T11:54:50.255Z,8.00
2024-01-07T11:57:19.061Z,9.40
2024-01-07T11:59:47.552Z,9.10
2024-01-07T12:02:16.519Z,10.90
2024-01-07T12:04:45.168Z,7.50
2024-01-07T12:07:16.079Z,11.90
2024-01-07T12:09:44.941Z,9.00
2024-01-07T12:12:13.528Z,9.10
2024-01-07T12:14:42.076Z,10.90
2024-01-07T12:17:13.895Z,7.20
2024-01-07T12:19:42.983Z,8.30
2024-01-07T12:22:11.457Z,8.40
2024-01-07T12:24:39.648Z,13.10
2024-01-07T12:27:08.503Z,9.80
2024-01-07T12:29:36.494Z,9.70
2024-01-07T12:32:06.551Z,8.20
2024-01-07T12:34:34.785Z,8.40
2024-01-07T12:37:03.716Z,10.80
2024-01-07T12:39:31.989Z,11.50
2024-01-07T12:42:00.140Z,10.00
2024-01-07T12:44:29.870Z,10.60
2024-01-07T12:46:58.108Z,10.00
2024-01-07T12:49:26.336Z,9.20
2024-01-07T12:51:55.232Z,9.50
2024-01-07T12:54:24.978Z,9.70
2024-01-07T12:56:53.162Z,11.40
2024-01-07T12:59:21.170Z,10.90
2024-01-07T13:01:49.540Z,9.30
2024-01-07T13:04:18.689Z,10.10
2024-01-07T13:06:47.072Z,12.40
2024-01-07T13:09:15.660Z,11.00
2024-01-07T13:11:43.832Z,8.50
2024-01-07T13:14:12.029Z,9.00
2024-01-07T13:16:40.207Z,9.80
2024-01-07T13:19:10.094Z,9.90
2024-01-07T13:21:42.642Z,11.50
2024-01-07T13:24:11.220Z,16.80
2024-01-07T13:26:39.548Z,12.20
2024-01-07T13:29:07.668Z,14.50
2024-01-07T13:31:35.684Z,12.20
2024-01-07T13:34:05.009Z,16.60
2024-01-07T13:36:33.205Z,15.90
2024-01-07T13:39:01.257Z,12.50
2024-01-07T13:41:33.740Z,10.20
2024-01-07T13:44:04.379Z,12.60
2024-01-07T13:46:32.517Z,13.40
2024-01-07T13:49:01.759Z,11.40
2024-01-07T13:51:30.021Z,20.20
2024-01-07T13:53:59.446Z,14.80
2024-01-07T13:56:27.916Z,11.60
2024-01-07T13:58:57.348Z,14.30
2024-01-07T14:01:25.556Z,15.90
2024-01-07T14:03:53.679Z,11.80
2024-01-07T14:06:22.601Z,11.40
2024-01-07T14:08:50.574Z,13.30
2024-01-07T14:11:19.711Z,10.20
2024-01-07T14:13:48.168Z,9.80
2024-01-07T14:16:16.299Z,12.00
2024-01-07T14:18:44.452Z,21.60
2024-01-07T14:21:12.647Z,11.20
2024-01-07T14:23:40.684Z,10.50
2024-01-07T14:26:08.763Z,8.40
2024-01-07T14:28:36.965Z,10.60
2024-01-07T14:31:05.631Z,10.30
2024-01-07T14:33:34.440Z,19.10
2024-01-07T14:36:05.513Z,6.90
2024-01-07T14:38:33.994Z,13.20
2024-01-07T14:41:02.143Z,16.50
2024-01-07T14:43:30.827Z,12.00
2024-01-07T14:45:58.999Z,8.80
2024-01-07T14:48:27.104Z,11.80
2024-01-07T14:50:55.252Z,13.80
2024-01-07T14:53:23.367Z,15.90
2024-01-07T14:55:52.511Z,13.30
2024-01-07T14:58:22.535Z,11.70
2024-01-07T15:00:51.202Z,9.60
2024-01-07T15:03:20.905Z,9.70
2024-01-07T15:05:49.138Z,10.20
2024-01-07T15:08:17.243Z,13.30
2024-01-07T15:10:45.586Z,18.20
2024-01-07T15:13:18.235Z,13.80
2024-01-07T15:15:48.932Z,11.20
2024-01-07T15:18:17.664Z,12.50
2024-01-07T15:20:46.076Z,10.80
2024-01-07T15:23:14.251Z,10.20
2024-01-07T15:25:42.681Z,12.60
2024-01-07T15:28:10.716Z,12.80
2024-01-07T15:30:39.042Z,18.20
2024-01-07T15:33:07.203Z,24.80
2024-01-07T15:35:35.197Z,16.30
2024-01-07T15:38:03.562Z,9.00
2024-01-07T15:40:32.067Z,9.20
2024-01-07T15:43:00.994Z,9.40
2024-01-07T15:45:29.292Z,9.70
2024-01-07T15:47:57.614Z,11.90
2024-01-07T15:50:27.042Z,13.80
2024-01-07T15:52:57.199Z,11.10
2024-01-07T15:55:25.317Z,8.80
2024-01-07T15:57:53.540Z,10.00
2024-01-07T16:00:21.991Z,9.40
2024-01-07T16:02:50.344Z,12.10
2024-01-07T16:05:19.601Z,10.20
2024-01-07T16:07:47.958Z,9.60
2024-01-07T16:10:16.364Z,8.40
2024-01-07T16:12:44.601Z,10.40
2024-01-07T16:15:12.946Z,12.30
2024-01-07T16:17:43.797Z,8.40
2024-01-07T16:20:14.074Z,8.90
2024-01-07T16:22:42.516Z,11.40
2024-01-07T16:25:10.694Z,9.90
2024-01-07T16:27:39.563Z,7.20
2024-01-07T16:30:09.912Z,12.30
2024-01-07T16:32:38.450Z,12.00
2024-01-07T16:35:07.398Z,10.90
2024-01-07T16:37:35.619Z,8.60
2024-01-07T16:40:05.186Z,10.00
2024-01-07T16:42:33.436Z,8.50
2024-01-07T16:45:02.380Z,12.30
2024-01-07T16:47:30.501Z,8.10
2024-01-07T16:52:29.952Z,10.80
2024-01-07T16:54:58.175Z,11.90
2024-01-07T16:57:26.228Z,9.00
2024-01-07T16:59:54.321Z,11.20
2024-01-07T17:02:22.596Z,11.30
2024-01-07T17:04:51.125Z,11.50
2024-01-07T17:07:22.398Z,8.40
2024-01-07T17:09:50.427Z,10.50
2024-01-07T17:12:18.435Z,8.20
2024-01-07T17:14:47.149Z,9.10
2024-01-07T17:17:15.238Z,10.70
2024-01-07T17:19:43.786Z,6.90
2024-01-07T17:22:12.171Z,9.60
2024-01-07T17:24:41.814Z,10.60
2024-01-07T17:27:09.955Z,12.30
2024-01-07T17:29:38.048Z,17.00
2024-01-07T17:32:06.670Z,15.80
2024-01-07T17:34:34.836Z,18.10
2024-01-07T17:37:04.455Z,11.40
2024-01-07T17:39:34.687Z,8.50
2024-01-07T17:42:07.065Z,9.70
2024-01-07T17:44:35.158Z,6.90
2024-01-07T17:47:03.384Z,8.70
2024-01-07T17:49:31.982Z,11.80
2024-01-07T17:52:00.224Z,9.80
2024-01-07T17:54:28.520Z,11.40
2024-01-07T17:56:56.576Z,11.30
2024-01-07T17:59:24.693Z,33.20
2024-01-07T18:01:54.180Z,11.70
2024-01-07T18:04:22.418Z,10.80
2024-01-07T18:06:50.397Z,9.20
2024-01-07T18:09:18.445Z,9.60
2024-01-07T18:11:46.526Z,10.20
2024-01-07T18:14:15.743Z,7.00
2024-01-07T18:16:44.370Z,8.00
2024-01-07T18:19:12.656Z,10.20
2024-01-07T18:21:41.183Z,7.90
2024-01-07T18:24:11.193Z,9.40
2024-01-07T18:26:39.160Z,10.50
2024-01-07T18:29:10.924Z,16.30
2024-01-07T18:31:43.048Z,11.50
2024-01-07T18:34:12.065Z,10.00
2024-01-07T18:36:41.736Z,10.50
2024-01-07T18:39:10.143Z,10.90
2024-01-07T18:41:38.709Z,11.70
2024-01-07T18:44:08.629Z,10.70
2024-01-07T18:46:37.048Z,13.80
2024-01-07T18:49:05.304Z,13.80
2024-01-07T18:51:33.365Z,15.00
2024-01-07T18:54:01.487Z,12.30
2024-01-07T18:56:30.081Z,11.10
2024-01-07T18:58:58.426Z,13.20
2024-01-07T19:01:28.606Z,14.40
2024-01-07T19:03:56.924Z,10.50
2024-01-07T19:06:24.942Z,11.30
2024-01-07T19:08:54.135Z,10.70
2024-01-07T19:11:22.471Z,13.50
2024-01-07T19:13:50.768Z,16.40
2024-01-07T19:16:19.022Z,26.20
2024-01-07T19:18:47.386Z,14.80
2024-01-07T19:21:18.082Z,18.90
2024-01-07T19:23:46.062Z,15.70
2024-01-07T19:26:14.296Z,14.60
2024-01-07T19:28:43.764Z,13.70
2024-01-07T19:31:12.108Z,14.40
2024-01-07T19:33:44.516Z,17.20
2024-01-07T19:36:13.046Z,12.70
2024-01-07T19:38:41.098Z,10.70
2024-01-07T19:41:09.188Z,10.10
2024-01-07T19:43:37.427Z,17.10
2024-01-07T19:46:05.476Z,15.60
2024-01-07T19:48:33.656Z,20.70
2024-01-07T19:51:01.951Z,15.70
2024-01-07T19:53:31.399Z,18.70
2024-01-07T19:56:03.332Z,14.30
2024-01-07T19:58:32.140Z,14.70
2024-01-07T20:01:00.293Z,11.50
2024-01-07T20:03:28.464Z,10.50
2024-01-07T20:05:56.610Z,8.80
2024-01-07T20:08:24.898Z,13.40
2024-01-07T20:10:54.094Z,13.70
2024-01-07T20:13:23.849Z,16.50
2024-01-07T20:15:51.964Z,18.50
2024-01-07T20:18:20.124Z,15.30
2024-01-07T20:20:48.585Z,15.10
2024-01-07T20:23:17.345Z,13.30
2024-01-07T20:25:47.674Z,9.60
2024-01-07T20:28:15.872Z,12.40
2024-01-07T20:30:44.181Z,11.10
2024-01-07T20:33:15.681Z,13.10
2024-01-07T20:35:44.798Z,9.80
2024-01-07T20:38:12.953Z,12.90
2024-01-07T20:40:41.096Z,13.00
2024-01-07T20:43:11.582Z,18.10
2024-01-07T20:45:40.019Z,19.10
2024-01-07T20:48:08.505Z,13.20
2024-01-07T20:50:38.920Z,14.70
2024-01-07T20:53:07.354Z,11.80
2024-01-07T20:55:36.129Z,13.90
2024-01-07T20:58:04.505Z,17.80
2024-01-07T21:00:33.627Z,10.50
2024-01-07T21:03:01.980Z,20.30
2024-01-07T21:05:30.950Z,13.30
2024-01-07T21:07:59.469Z,17.60
2024-01-07T21:10:28.435Z,15.70
2024-01-07T21:12:59.005Z,19.30
2024-01-07T21:15:27.374Z,18.10
2024-01-07T21:18:02.464Z,14.50
2024-01-07T21:20:31.654Z,18.00
2024-01-07T21:22:59.959Z,23.10
2024-01-07T21:25:30.320Z,13.70
2024-01-07T21:27:59.932Z,14.30
2024-01-07T21:30:28.397Z,20.40
2024-01-07T21:32:56.683Z,12.50
2024-01-07T21:35:25.013Z,9.40
2024-01-07T21:37:53.194Z,13.90
2024-01-07T21:40:21.350Z,16.10
2024-01-07T21:42:49.482Z,14.00
2024-01-07T21:45:17.742Z,14.90
2024-01-07T21:47:45.726Z,15.00
2024-01-07T21:50:14.199Z,10.60
2024-01-07T21:52:54.382Z,18.20
2024-01-07T21:55:22.931Z,13.70
2024-01-07T21:57:51.037Z,14.30
2024-01-07T22:00:19.387Z,14.30
2024-01-07T22:02:48.387Z,17.30
2024-01-07T22:05:16.729Z,12.50
2024-01-07T22:07:44.781Z,13.30
2024-01-07T22:10:12.904Z,17.80
2024-01-07T22:12:40.938Z,19.80
2024-01-07T22:15:10.004Z,14.90
2024-01-07T22:17:38.295Z,16.50
2024-01-07T22:20:09.636Z,14.00
2024-01-07T22:22:37.624Z,12.90
2024-01-07T22:25:06.492Z,12.50
2024-01-07T22:27:35.918Z,10.10
2024-01-07T22:30:05.285Z,17.00
2024-01-07T22:32:33.664Z,12.60
2024-01-07T22:35:02.203Z,10.60
2024-01-07T22:37:30.993Z,13.10
2024-01-07T22:39:58.953Z,16.90
2024-01-07T22:42:27.065Z,12.20
2024-01-07T22:44:55.045Z,9.90
2024-01-07T22:47:23.094Z,10.40
2024-01-07T22:49:51.451Z,13.60
2024-01-07T22:52:21.366Z,10.70
2024-01-07T22:54:51.023Z,12.70
2024-01-07T22:57:18.972Z,10.50
2024-01-07T22:59:47.233Z,8.50
2024-01-07T23:02:16.403Z,9.80
2024-01-07T23:04:44.961Z,11.70
2024-01-07T23:07:13.175Z,11.70
2024-01-07T23:09:42.467Z,15.70
2024-01-07T23:12:10.636Z,16.20
2024-01-07T23:14:38.818Z,13.40
2024-01-07T23:17:07.076Z,15.90
2024-01-07T23:19:35.291Z,10.90
2024-01-07T23:22:03.486Z,14.10
2024-01-07T23:24:32.162Z,17.70
2024-01-07T23:27:00.144Z,11.80
2024-01-07T23:29:28.512Z,18.40
2024-01-07T23:31:56.727Z,23.10
2024-01-07T23:34:24.952Z,12.10
2024-01-07T23:36:53.719Z,11.90
2024-01-07T23:39:21.661Z,16.10
2024-01-07T23:41:49.704Z,11.00
2024-01-07T23:44:17.830Z,9.60
2024-01-07T23:46:46.032Z,10.10
2024-01-07T23:49:13.981Z,8.90
2024-01-07T23:51:42.024Z,9.80
2024-01-07T23:54:10.517Z,12.80
2024-01-07T23:56:40.523Z,14.40
2024-01-07T23:59:08.783Z,12.70
